Main page
METAR-TAF:

METAR-TAF

Airports :

Zanjan, Iran

latitude: 36-41N, longitude: 048-29E, elevation: 1663 m

Current weather observation

The report was made 7 hours and 4 minutes ago, at 15:00 UTC
Wind 16 kt from the East/Northeast
Temperature 12°C
Humidity 71%
Pressure 1022 hPa
Visibility: 9000 m
Few clouds at a height of 2000 ft
Scattered clouds at a height of 3000 ft, Cumulonimbus.
Scattered clouds at a height of 20000 ft

METAR: OITZ 211500Z 06016KT 9000 FEW020 SCT030CB SCT200 12/07 Q1022

Time: 01:34 (22:04 UTC)


TAF: missing

Weather observations and forecasts of more than 4000 airports (METAR and TAF reports).

The available stations are represented by yellow and red dots on the map.

Hover mouse over dot to see the name of the station.

Then click to see weather observations and forecasts.

To change the map : click on the green buttons with a black cross to zoom in, on the green button with a dash to zoom out, or on the green arrows for adjacent maps.


METAR-TAF: